Time;durP1;ratioP1;P1;durP2;ratioP2;P2;SDS_P1;SDS_P2;PMS_P1;PMS_P2;Temp;Humidity;BMP_temperature;BMP_pressure;BME280_temperature;BME280_humidity;BME280_pressure;Samples;Min_cycle;Max_cycle;Signal;HPM_P1;HPM_P2
2021/06/21 00:00:27;;;;;;;8.30;7.70;;;;;;;15.47;74.03;93211.19;5111733;28;20085;-45
2021/06/21 00:02:53;;;;;;;8.52;7.80;;;;;;;15.33;74.36;93204.56;5112031;28;20074;-44
2021/06/21 00:05:19;;;;;;;7.78;7.15;;;;;;;15.28;74.33;93194.47;5111953;27;20023;-45
2021/06/21 00:07:44;;;;;;;7.38;6.88;;;;;;;15.37;73.40;93213.22;5111883;28;20119;-42
2021/06/21 00:10:12;;;;;;;6.20;5.72;;;;;;;15.35;72.88;93199.16;5110849;28;20016;-45
2021/06/21 00:12:40;;;;;;;15.15;6.75;;;;;;;15.31;72.95;93202.38;5111640;28;20055;-43
2021/06/21 00:15:07;;;;;;;20.70;7.03;;;;;;;15.30;72.88;93200.91;5111398;28;20779;-46
2021/06/21 00:17:33;;;;;;;8.98;5.97;;;;;;;15.16;73.00;93194.31;5111543;28;20031;-44
2021/06/21 00:19:58;;;;;;;6.72;6.22;;;;;;;15.21;73.07;93198.84;5111465;28;20030;-42
2021/06/21 00:22:24;;;;;;;6.85;6.28;;;;;;;15.07;73.40;93198.56;5111474;28;20031;-43
2021/06/21 00:24:49;;;;;;;7.45;6.82;;;;;;;15.12;73.69;93194.75;5111404;28;20385;-42
2021/06/21 00:27:14;;;;;;;6.25;5.53;;;;;;;15.17;72.66;93190.97;5111062;28;20019;-43
2021/06/21 00:29:40;;;;;;;7.07;6.47;;;;;;;15.17;73.44;93190.22;5111060;28;20024;-43
2021/06/21 00:32:06;;;;;;;7.45;6.90;;;;;;;15.05;73.42;93190.06;5110996;28;20030;-44
2021/06/21 00:34:31;;;;;;;8.57;7.72;;;;;;;15.00;73.83;93184.81;5110961;28;20031;-46
2021/06/21 00:36:57;;;;;;;8.85;7.95;;;;;;;15.03;74.27;93181.56;5111168;28;20036;-46
2021/06/21 00:39:22;;;;;;;8.07;7.47;;;;;;;14.97;74.01;93183.19;5110689;28;20042;-45
2021/06/21 00:41:48;;;;;;;15.80;7.82;;;;;;;14.92;74.27;93182.16;5111117;28;20027;-46
2021/06/21 00:44:13;;;;;;;8.75;7.20;;;;;;;14.91;73.89;93180.69;5111022;28;20102;-45
2021/06/21 00:46:39;;;;;;;7.55;6.85;;;;;;;14.92;73.89;93179.38;5104217;28;20020;-43
2021/06/21 00:49:04;;;;;;;7.10;6.57;;;;;;;14.89;73.70;93183.34;5090205;28;20044;-45
2021/06/21 00:51:30;;;;;;;8.35;6.95;;;;;;;14.93;73.82;93185.66;5090603;28;20023;-43
2021/06/21 00:53:56;;;;;;;12.45;8.02;;;;;;;14.94;73.74;93201.75;5096529;28;20036;-44
2021/06/21 00:56:22;;;;;;;7.80;7.25;;;;;;;14.94;73.77;93204.53;5092444;28;20100;-45
2021/06/21 00:58:49;;;;;;;8.20;7.60;;;;;;;14.98;74.27;93213.19;5110827;28;20023;-43
2021/06/21 01:01:14;;;;;;;7.53;7.03;;;;;;;14.93;74.40;93205.13;5105001;28;20085;-44
2021/06/21 01:03:40;;;;;;;10.05;9.15;;;;;;;14.84;75.44;93208.63;5107887;28;20023;-41
2021/06/21 01:06:05;;;;;;;9.85;9.05;;;;;;;14.81;75.40;93210.50;5110424;28;20031;-43
2021/06/21 01:08:31;;;;;;;10.90;10.10;;;;;;;14.86;75.74;93200.44;5110372;28;20062;-43
2021/06/21 01:10:57;;;;;;;10.90;10.10;;;;;;;14.93;75.69;93200.31;5110407;28;20042;-44
2021/06/21 01:14:00;;;;;;;14.05;13.25;;;;;;;14.69;77.37;93192.22;5109137;28;20100;-44
2021/06/21 01:16:31;;;;;;;14.43;13.43;;;;;;;14.87;77.44;93202.63;5110530;28;20106;-44
2021/06/21 01:19:08;;;;;;;14.57;13.57;;;;;;;15.01;76.88;93195.34;5109387;28;20035;-44
2021/06/21 01:22:11;;;;;;;11.70;10.73;;;;;;;15.02;76.39;93191.25;5109137;28;20027;-43
2021/06/21 01:25:15;;;;;;;13.60;12.65;;;;;;;14.80;77.54;93192.38;5110196;28;20034;-44
2021/06/21 01:28:02;;;;;;;13.55;12.65;;;;;;;15.00;77.24;93185.53;5100499;28;20058;-44
2021/06/21 01:31:02;;;;;;;13.32;11.88;;;;;;;15.05;76.85;93184.50;5110391;28;20242;-43
2021/06/21 01:33:28;;;;;;;9.93;8.18;;;;;;;15.06;75.60;93183.19;5110354;28;20389;-42
2021/06/21 01:35:58;;;;;;;9.02;8.02;;;;;;;14.94;75.44;93181.59;5108748;28;20110;-43
2021/06/21 01:38:28;;;;;;;9.63;7.38;;;;;;;14.94;75.33;93173.97;5108979;28;20118;-42
2021/06/21 01:40:57;;;;;;;8.20;7.60;;;;;;;14.80;75.96;93172.94;5108758;28;20027;-43
2021/06/21 01:43:32;;;;;;;10.37;8.33;;;;;;;14.84;75.27;93170.44;5109034;28;20151;-43
2021/06/21 01:46:00;;;;;;;9.52;7.47;;;;;;;14.75;75.62;93159.34;5108511;28;20030;-44
2021/06/21 01:48:27;;;;;;;8.18;7.47;;;;;;;14.83;75.28;93166.22;5109809;28;20019;-43
2021/06/21 01:50:55;;;;;;;8.55;7.78;;;;;;;14.73;75.88;93175.84;5110128;28;20024;-44
2021/06/21 01:53:23;;;;;;;7.70;6.32;;;;;;;14.70;75.24;93182.56;5108249;28;20024;-43
2021/06/21 01:55:55;;;;;;;7.38;6.68;;;;;;;14.63;74.88;93186.19;5109732;28;20063;-44
2021/06/21 01:58:21;;;;;;;25.95;7.55;;;;;;;14.51;75.02;93176.97;5096980;28;20028;-46
2021/06/21 02:00:47;;;;;;;7.47;6.82;;;;;;;14.41;75.16;93163.03;5089678;28;20035;-44
2021/06/21 02:03:12;;;;;;;8.20;7.50;;;;;;;14.51;75.33;93177.69;5088502;28;20024;-42
2021/06/21 02:05:40;;;;;;;7.18;6.70;;;;;;;14.61;75.41;93175.69;5088140;28;20024;-43
2021/06/21 02:08:06;;;;;;;6.32;5.82;;;;;;;14.67;74.54;93183.72;5089694;28;20020;-43
2021/06/21 02:10:33;;;;;;;6.78;6.15;;;;;;;14.70;74.32;93177.75;5088335;28;20498;-49
2021/06/21 02:13:00;;;;;;;7.22;6.63;;;;;;;14.63;74.53;93178.59;5089768;28;20451;-47
2021/06/21 02:15:27;;;;;;;7.15;6.55;;;;;;;14.42;75.16;93168.00;5071288;28;20079;-45
2021/06/21 02:17:52;;;;;;;8.45;7.75;;;;;;;14.48;75.19;93169.78;5088480;28;20028;-46
2021/06/21 02:20:20;;;;;;;8.23;7.50;;;;;;;14.37;75.92;93169.03;5089596;28;20550;-44
2021/06/21 02:22:46;;;;;;;9.73;8.80;;;;;;;14.44;75.23;93173.00;5093132;28;20413;-42
2021/06/21 02:25:12;;;;;;;7.45;6.82;;;;;;;14.14;75.50;93134.59;5092272;28;20032;-42
2021/06/21 02:27:38;;;;;;;9.82;6.90;;;;;;;14.21;75.01;93150.38;5093151;28;20115;-44
2021/06/21 02:30:07;;;;;;;24.33;8.25;;;;;;;14.10;75.18;93159.25;5093285;28;20095;-43
2021/06/21 02:32:32;;;;;;;9.13;8.07;;;;;;;14.03;75.54;93163.63;5093296;28;20028;-41
2021/06/21 02:34:58;;;;;;;8.13;7.43;;;;;;;14.04;75.72;93165.09;5091752;28;20652;-42
2021/06/21 02:37:23;;;;;;;10.48;7.82;;;;;;;14.16;74.85;93159.72;5092020;28;20040;-42
2021/06/21 02:39:49;;;;;;;8.48;7.90;;;;;;;14.27;74.77;93161.97;5092644;28;20481;-44
2021/06/21 02:42:15;;;;;;;8.70;8.10;;;;;;;14.10;75.25;93167.59;5092700;28;20039;-43
2021/06/21 02:44:41;;;;;;;11.70;10.70;;;;;;;14.17;76.26;93167.47;5092709;28;20031;-41
2021/06/21 02:47:06;;;;;;;12.68;10.45;;;;;;;14.12;76.43;93170.53;5102546;28;20024;-42
2021/06/21 02:49:32;;;;;;;9.07;8.35;;;;;;;14.19;75.69;93167.63;5111862;28;20076;-42
2021/06/21 02:52:14;;;;;;;11.85;11.05;;;;;;;14.27;75.83;93175.84;5113185;28;20426;-42
2021/06/21 02:55:08;;;;;;;8.55;7.68;;;;;;;14.14;75.39;93182.50;5099275;28;20020;-43
2021/06/21 02:57:50;;;;;;;10.80;7.85;;;;;;;14.20;74.74;93168.38;5092722;28;20028;-44
2021/06/21 03:00:15;;;;;;;8.65;7.90;;;;;;;14.22;74.78;93176.84;5092687;28;20021;-43
2021/06/21 03:02:41;;;;;;;15.13;8.95;;;;;;;14.11;75.33;93183.69;5092642;28;20497;-45
2021/06/21 03:05:07;;;;;;;21.00;9.38;;;;;;;14.13;75.33;93177.53;5091023;28;20409;-46
2021/06/21 03:07:33;;;;;;;10.68;9.77;;;;;;;14.18;75.36;93180.06;5092515;28;20055;-44
2021/06/21 03:09:59;;;;;;;14.75;13.73;;;;;;;13.90;77.11;93182.69;5091275;28;20012;-46
2021/06/21 03:12:28;;;;;;;15.73;14.65;;;;;;;13.90;78.06;93171.59;5091266;28;20020;-46
2021/06/21 03:14:53;;;;;;;17.53;16.33;;;;;;;13.84;78.47;93171.84;5092532;28;20024;-45
2021/06/21 03:17:19;;;;;;;15.55;14.75;;;;;;;13.93;78.05;93170.44;5090752;28;20051;-45
2021/06/21 03:19:46;;;;;;;16.55;15.40;;;;;;;13.94;78.55;93164.31;5092023;28;20382;-45
2021/06/21 03:22:12;;;;;;;15.30;14.18;;;;;;;14.07;78.01;93163.94;5091030;28;20405;-45
2021/06/21 03:24:37;;;;;;;13.38;12.07;;;;;;;14.15;77.22;93161.78;5091965;28;20049;-45
2021/06/21 03:27:04;;;;;;;10.60;9.55;;;;;;;14.19;76.77;93153.75;5092244;28;20023;-46
2021/06/21 03:29:29;;;;;;;9.77;8.07;;;;;;;14.25;75.98;93151.41;5092163;28;20024;-45
2021/06/21 03:31:56;;;;;;;16.65;9.32;;;;;;;14.28;76.15;93163.41;5090423;28;20027;-43
2021/06/21 03:34:24;;;;;;;10.18;9.38;;;;;;;14.22;76.49;93151.84;5090625;28;20561;-45
2021/06/21 03:36:51;;;;;;;10.88;9.88;;;;;;;14.34;76.90;93169.44;5091919;28;20489;-45
2021/06/21 03:39:16;;;;;;;9.85;8.98;;;;;;;14.23;76.94;93162.38;5091643;28;20035;-43
2021/06/21 03:41:43;;;;;;;11.80;10.07;;;;;;;14.17;77.34;93167.47;5091004;28;20067;-45
2021/06/21 03:44:08;;;;;;;11.52;10.82;;;;;;;14.27;77.43;93168.22;5091486;28;20028;-44
2021/06/21 03:46:34;;;;;;;10.98;10.27;;;;;;;14.38;77.06;93164.94;5097302;28;20036;-43
2021/06/21 03:49:00;;;;;;;14.15;9.80;;;;;;;14.48;76.82;93170.53;5111736;28;20043;-43
2021/06/21 03:51:25;;;;;;;11.77;10.80;;;;;;;14.48;76.88;93173.31;5111745;28;20024;-44
2021/06/21 03:53:51;;;;;;;10.45;9.77;;;;;;;14.59;77.32;93178.31;5111357;28;20039;-42
2021/06/21 03:56:16;;;;;;;13.43;12.48;;;;;;;14.50;78.29;93183.81;5112051;28;20085;-45
2021/06/21 03:58:45;;;;;;;14.32;13.32;;;;;;;14.63;78.29;93186.94;5111900;28;20056;-44
2021/06/21 04:01:11;;;;;;;13.80;12.83;;;;;;;14.54;78.44;93176.53;5111858;28;20102;-43
2021/06/21 04:03:36;;;;;;;11.30;10.32;;;;;;;14.71;77.51;93184.75;5111658;28;20035;-43
2021/06/21 04:06:01;;;;;;;10.55;9.73;;;;;;;14.77;77.03;93179.63;5111232;28;20023;-42
2021/06/21 04:08:27;;;;;;;12.45;11.25;;;;;;;14.67;77.98;93180.94;5111781;28;20030;-43
2021/06/21 04:10:52;;;;;;;11.82;10.98;;;;;;;14.77;78.03;93179.63;5111660;28;20081;-43
2021/06/21 04:13:19;;;;;;;12.18;11.38;;;;;;;14.82;77.97;93173.06;5111589;28;20027;-44
2021/06/21 04:15:45;;;;;;;13.25;12.18;;;;;;;14.87;78.05;93174.84;5111695;28;20537;-44
2021/06/21 04:18:14;;;;;;;9.93;9.23;;;;;;;14.92;77.97;93176.59;5111166;28;20099;-42
2021/06/21 04:20:41;;;;;;;11.93;10.85;;;;;;;14.99;77.88;93180.53;5111705;28;20034;-46
2021/06/21 04:23:07;;;;;;;9.05;8.45;;;;;;;15.05;77.36;93184.50;5111737;28;20512;-43
2021/06/21 04:25:33;;;;;;;8.32;7.57;;;;;;;15.10;77.24;93185.53;5111238;28;20110;-44
2021/06/21 04:27:59;;;;;;;9.55;8.85;;;;;;;14.74;77.66;93180.09;5111545;28;20111;-46
2021/06/21 04:30:25;;;;;;;8.77;8.18;;;;;;;14.77;77.73;93187.97;5110329;28;20102;-45
2021/06/21 04:32:51;;;;;;;7.88;7.30;;;;;;;14.85;77.25;93183.03;5111439;28;20058;-46
2021/06/21 04:35:18;;;;;;;9.07;8.38;;;;;;;14.92;77.05;93187.72;5111305;28;20035;-46
2021/06/21 04:37:46;;;;;;;8.02;7.45;;;;;;;14.93;76.56;93175.28;5110999;28;20030;-45
2021/06/21 04:40:13;;;;;;;8.35;7.53;;;;;;;14.98;77.21;93190.22;5111201;28;20055;-45
2021/06/21 04:42:39;;;;;;;8.45;7.75;;;;;;;15.10;77.14;93194.59;5111010;28;20028;-44
2021/06/21 04:45:06;;;;;;;11.18;8.25;;;;;;;15.18;77.42;93200.03;5110500;28;20553;-44
2021/06/21 04:47:31;;;;;;;47.63;11.05;;;;;;;15.22;77.52;93208.69;5107720;28;20084;-46
2021/06/21 04:49:57;;;;;;;9.25;8.45;;;;;;;15.28;77.58;93209.13;5110548;28;20071;-47
2021/06/21 04:52:25;;;;;;;8.48;7.88;;;;;;;15.42;76.67;93204.56;5110572;28;20035;-45
2021/06/21 04:54:51;;;;;;;9.13;8.30;;;;;;;15.55;76.97;93217.34;5110529;28;20028;-46
2021/06/21 04:57:17;;;;;;;12.57;11.80;;;;;;;15.64;77.95;93216.56;5110546;28;20157;-43
2021/06/21 04:59:43;;;;;;;9.18;8.57;;;;;;;15.69;77.93;93216.28;5110709;28;20043;-45
2021/06/21 05:02:09;;;;;;;10.65;9.80;;;;;;;15.79;78.29;93214.22;5110374;28;20545;-49
2021/06/21 05:04:34;;;;;;;10.88;10.27;;;;;;;15.83;78.64;93208.94;5110637;28;20027;-48
2021/06/21 05:07:00;;;;;;;13.40;12.60;;;;;;;15.90;78.81;93212.88;5110508;28;20477;-47
2021/06/21 05:09:25;;;;;;;10.80;10.15;;;;;;;15.87;79.42;93214.06;5110592;28;20012;-47
2021/06/21 05:11:51;;;;;;;68.30;63.25;;;;;;;15.88;79.63;93223.88;5110129;28;20031;-44
2021/06/21 05:14:17;;;;;;;13.82;13.02;;;;;;;15.95;79.66;93225.78;5110210;28;20038;-48
2021/06/21 05:16:42;;;;;;;13.05;12.20;;;;;;;16.02;80.17;93218.56;5110447;28;20030;-44
2021/06/21 05:19:08;;;;;;;10.90;10.10;;;;;;;16.10;79.15;93219.88;5109974;28;20480;-42
2021/06/21 05:21:33;;;;;;;11.73;11.02;;;;;;;16.14;79.37;93214.59;5110389;28;20059;-41
2021/06/21 05:23:59;;;;;;;14.07;12.88;;;;;;;16.00;79.62;93204.50;5109572;28;20050;-42
2021/06/21 05:26:25;;;;;;;11.85;11.05;;;;;;;16.12;79.93;93222.06;5110248;28;20027;-45
2021/06/21 05:28:50;;;;;;;11.18;10.27;;;;;;;16.20;79.35;93228.22;5109937;28;20019;-42
2021/06/21 05:31:16;;;;;;;12.60;11.48;;;;;;;16.28;79.16;93223.94;5110173;28;20031;-42
2021/06/21 05:33:43;;;;;;;10.23;9.32;;;;;;;16.42;79.56;93222.09;5109880;28;20023;-42
2021/06/21 05:36:09;;;;;;;8.88;8.27;;;;;;;16.43;79.18;93218.00;5109804;28;20515;-44
2021/06/21 05:38:34;;;;;;;9.60;8.90;;;;;;;16.53;78.69;93223.56;5109993;28;20027;-44
2021/06/21 05:41:00;;;;;;;10.52;9.73;;;;;;;16.60;78.45;93231.75;5110093;28;20465;-43
2021/06/21 05:43:25;;;;;;;11.57;10.70;;;;;;;16.70;78.86;93228.19;5109491;28;20031;-43
2021/06/21 05:45:50;;;;;;;10.18;9.38;;;;;;;16.77;78.56;93224.47;5109159;28;20023;-44
2021/06/21 05:48:16;;;;;;;8.93;8.00;;;;;;;16.95;76.23;93222.91;5107795;28;20043;-43
2021/06/21 05:50:42;;;;;;;8.90;8.10;;;;;;;17.01;77.65;93223.31;5109779;28;20053;-42
2021/06/21 05:53:08;;;;;;;8.18;7.55;;;;;;;17.13;77.32;93221.34;5109928;28;20058;-45
2021/06/21 05:55:33;;;;;;;8.65;7.57;;;;;;;17.22;76.00;93226.84;5111814;28;20419;-44
2021/06/21 05:58:00;;;;;;;7.55;6.82;;;;;;;17.32;76.37;93221.19;5098642;28;20088;-43
2021/06/21 06:00:27;;;;;;;9.18;8.27;;;;;;;17.37;76.81;93223.66;5105954;28;20016;-43
2021/06/21 06:02:52;;;;;;;31.92;29.38;;;;;;;17.48;75.98;93224.31;5103694;28;20031;-43
2021/06/21 06:05:18;;;;;;;8.50;7.90;;;;;;;17.54;76.93;93211.50;5107488;28;20026;-43
2021/06/21 06:07:45;;;;;;;9.55;8.60;;;;;;;17.60;77.52;93209.09;5109640;28;20408;-44
2021/06/21 06:10:10;;;;;;;8.35;7.75;;;;;;;17.69;76.63;93207.56;5090160;28;20065;-43
2021/06/21 06:12:37;;;;;;;8.15;7.55;;;;;;;17.82;76.39;93196.53;5090991;28;20024;-42
2021/06/21 06:15:03;;;;;;;8.20;7.70;;;;;;;17.89;75.37;93203.97;5090851;28;20406;-44
2021/06/21 06:17:29;;;;;;;7.63;7.13;;;;;;;17.85;75.43;93206.50;5093586;28;20169;-43
2021/06/21 06:19:54;;;;;;;7.65;7.15;;;;;;;17.94;75.11;93199.38;5110268;28;20028;-42
2021/06/21 06:22:20;;;;;;;7.82;7.22;;;;;;;17.99;75.02;93204.63;5110486;28;20024;-43
2021/06/21 06:24:46;;;;;;;6.55;5.78;;;;;;;18.13;73.83;93201.97;5110971;28;20647;-44
2021/06/21 06:27:11;;;;;;;6.72;6.30;;;;;;;18.20;73.69;93198.22;5112876;28;20111;-44
2021/06/21 06:29:37;;;;;;;7.45;6.88;;;;;;;18.25;74.72;93202.00;5112596;28;20103;-44
2021/06/21 06:32:03;;;;;;;15.57;14.32;;;;;;;18.34;75.05;93207.50;5112417;28;20015;-43
2021/06/21 06:34:29;;;;;;;8.18;7.47;;;;;;;18.51;75.19;93200.84;5112502;28;20035;-45
2021/06/21 06:36:55;;;;;;;7.60;7.00;;;;;;;18.70;73.50;93211.78;5112430;28;20057;-43
2021/06/21 06:39:21;;;;;;;10.73;7.00;;;;;;;18.97;72.40;93206.44;5112093;28;20041;-43
2021/06/21 06:41:47;;;;;;;8.38;6.93;;;;;;;19.19;71.07;93199.31;5111966;28;20111;-46
2021/06/21 06:44:13;;;;;;;7.00;6.50;;;;;;;19.47;69.92;93203.78;5112119;28;20019;-44
2021/06/21 06:46:39;;;;;;;6.82;6.13;;;;;;;19.70;70.38;93205.78;5104786;28;20065;-44
2021/06/21 06:49:04;;;;;;;7.80;6.60;;;;;;;19.97;69.84;93211.50;5091519;28;20048;-45
2021/06/21 06:51:51;;;;;;;6.70;6.30;;;;;;;20.26;69.17;93211.00;5091835;28;20042;-45
2021/06/21 06:56:59;;;;;;;5.60;5.20;;;;;;;20.80;66.15;93213.94;5112138;28;20024;-42
2021/06/21 06:59:29;;;;;;;6.82;4.85;;;;;;;20.87;65.45;93200.94;5112048;28;20096;-44
2021/06/21 07:01:55;;;;;;;5.47;5.07;;;;;;;20.89;65.72;93192.63;5111512;28;20035;-43
2021/06/21 07:04:21;;;;;;;5.38;4.90;;;;;;;20.95;65.98;93195.75;5111048;28;20024;-47
2021/06/21 07:06:46;;;;;;;6.18;5.68;;;;;;;21.02;66.64;93201.06;5110682;28;20068;-43
2021/06/21 07:09:12;;;;;;;6.60;5.25;;;;;;;20.99;65.51;93195.94;5111282;28;20020;-42
2021/06/21 07:11:38;;;;;;;7.60;5.50;;;;;;;20.97;66.29;93205.00;5110932;28;20031;-43
2021/06/21 07:14:04;;;;;;;7.18;5.40;;;;;;;20.82;67.33;93193.66;5110942;28;20019;-43
2021/06/21 07:16:30;;;;;;;5.28;4.88;;;;;;;20.91;67.86;93201.16;5111618;28;20102;-45
2021/06/21 07:18:56;;;;;;;5.68;5.28;;;;;;;20.88;66.62;93203.13;5111247;28;20102;-42
2021/06/21 07:21:21;;;;;;;5.18;4.78;;;;;;;20.98;66.13;93198.03;5111262;28;20512;-44
2021/06/21 07:23:47;;;;;;;5.72;5.18;;;;;;;21.08;66.36;93204.19;5111447;28;20462;-43
2021/06/21 07:26:12;;;;;;;4.53;4.20;;;;;;;21.30;65.39;93201.06;5110875;28;20019;-43
2021/06/21 07:28:38;;;;;;;5.13;3.88;;;;;;;21.59;65.05;93201.13;5111173;28;20072;-45
2021/06/21 07:31:03;;;;;;;7.75;4.20;;;;;;;22.04;64.45;93201.22;5110868;28;20080;-43
2021/06/21 07:33:31;;;;;;;4.72;3.83;;;;;;;22.52;62.82;93189.44;5111596;28;20072;-44
2021/06/21 07:35:57;;;;;;;3.13;2.92;;;;;;;23.40;58.99;93191.94;5111235;28;20024;-45
2021/06/21 07:38:22;;;;;;;4.50;3.38;;;;;;;24.25;56.50;93193.34;5110794;28;20039;-45
2021/06/21 07:40:48;;;;;;;5.28;2.72;;;;;;;25.31;53.65;93211.50;5111346;28;20027;-43
2021/06/21 07:43:13;;;;;;;2.75;2.55;;;;;;;26.39;50.75;93216.63;5111204;28;20522;-43
2021/06/21 07:45:40;;;;;;;3.03;2.83;;;;;;;27.41;47.99;93210.50;5111370;28;20020;-43
2021/06/21 07:48:05;;;;;;;3.10;2.85;;;;;;;27.84;45.86;93208.81;5110836;27;20504;-44
2021/06/21 07:50:31;;;;;;;3.45;2.92;;;;;;;27.99;44.45;93213.47;5110390;28;20043;-44
2021/06/21 07:52:58;;;;;;;3.55;2.42;;;;;;;28.44;44.29;93208.22;5111207;28;20038;-43
2021/06/21 07:55:27;;;;;;;3.78;2.90;;;;;;;28.60;44.93;93202.22;5110931;27;20027;-45
2021/06/21 07:57:56;;;;;;;3.40;2.88;;;;;;;28.65;43.36;93189.56;5110380;28;20088;-45
2021/06/21 08:00:23;;;;;;;;;;;;;;;29.27;42.85;93204.44;5111488;28;20431;-45
2021/06/21 08:02:52;;;;;;;17.83;4.25;;;;;;;29.76;41.87;93206.84;5111218;28;19999;-44
2021/06/21 08:05:19;;;;;;;12.10;3.35;;;;;;;29.40;42.15;93202.56;5110277;28;20385;-45
2021/06/21 08:07:45;;;;;;;4.22;2.75;;;;;;;28.92;42.93;93205.81;5109445;28;20031;-44
2021/06/21 08:10:11;;;;;;;3.90;2.53;;;;;;;29.13;43.27;93209.78;5109598;28;20080;-45
2021/06/21 08:12:36;;;;;;;3.50;3.10;;;;;;;29.73;41.38;93210.31;5110561;28;20035;-45
2021/06/21 08:15:04;;;;;;;4.40;2.55;;;;;;;30.33;39.83;93205.75;5109538;28;20027;-45
2021/06/21 08:17:29;;;;;;;3.28;2.78;;;;;;;30.94;38.35;93201.00;5108443;28;20528;-49
2021/06/21 08:19:55;;;;;;;6.00;2.40;;;;;;;31.80;36.49;93201.41;5108585;28;20026;-47
2021/06/21 08:22:23;;;;;;;2.17;2.05;;;;;;;32.02;36.24;93199.53;5109140;28;20031;-47
2021/06/21 08:24:49;;;;;;;2.17;2.08;;;;;;;31.70;35.91;93210.59;5109544;28;20118;-45
2021/06/21 08:27:15;;;;;;;3.90;2.17;;;;;;;30.67;36.83;93214.84;5107084;28;20039;-45
2021/06/21 08:29:42;;;;;;;2.88;2.50;;;;;;;29.65;38.50;93207.34;5108078;28;20015;-45
2021/06/21 08:32:07;;;;;;;7.07;2.88;;;;;;;29.28;40.74;93202.31;5109287;28;20415;-42
2021/06/21 08:34:33;;;;;;;2.33;2.20;;;;;;;28.97;41.85;93215.88;5108008;28;20110;-46
2021/06/21 08:36:58;;;;;;;3.30;2.85;;;;;;;29.58;41.83;93212.19;5109846;28;20055;-45
2021/06/21 08:39:24;;;;;;;2.78;2.50;;;;;;;30.18;40.26;93214.72;5109299;28;20097;-45
2021/06/21 08:41:50;;;;;;;2.40;2.20;;;;;;;31.19;37.87;93209.22;5109570;28;20015;-45
2021/06/21 08:44:15;;;;;;;2.30;2.10;;;;;;;32.27;34.53;93206.19;5109353;28;20015;-44
2021/06/21 08:46:41;;;;;;;2.50;2.40;;;;;;;32.72;33.62;93190.88;5109028;28;20026;-46
2021/06/21 08:49:09;;;;;;;2.33;2.22;;;;;;;32.96;32.89;93204.63;5109002;28;20039;-46
2021/06/21 08:51:36;;;;;;;2.72;2.53;;;;;;;32.66;33.66;93196.53;5105742;28;20023;-45
2021/06/21 08:54:02;;;;;;;3.10;2.47;;;;;;;32.51;33.94;93203.56;5108883;28;20031;-45
2021/06/21 08:56:28;;;;;;;2.42;2.22;;;;;;;32.73;32.97;93206.59;5109384;28;20551;-48
2021/06/21 08:58:53;;;;;;;3.17;2.88;;;;;;;31.56;36.07;93213.25;5108473;28;20020;-44
2021/06/21 09:01:18;;;;;;;3.10;2.83;;;;;;;30.14;39.36;93218.22;5108493;28;20051;-48
2021/06/21 09:03:45;;;;;;;3.83;2.97;;;;;;;28.72;42.67;93216.72;5108415;28;20031;-43
2021/06/21 09:06:22;;;;;;;8.77;6.00;;;;;;;27.55;45.57;93221.50;5108802;28;20030;-45
2021/06/21 09:08:55;;;;;;;13.98;4.60;;;;;;;26.97;47.87;93232.59;5106647;28;20020;-45
2021/06/21 09:11:44;;;;;;;7.63;4.35;;;;;;;26.37;49.65;93227.88;5104505;28;20031;-47
2021/06/21 09:14:25;;;;;;;4.82;4.43;;;;;;;25.98;51.67;93236.47;5105425;28;20084;-42
2021/06/21 09:16:58;;;;;;;4.60;4.10;;;;;;;26.08;51.79;93233.97;5105916;28;20030;-45
2021/06/21 09:19:24;;;;;;;12.00;5.60;;;;;;;27.12;50.22;93230.16;5096867;28;20378;-44
2021/06/21 09:21:50;;;;;;;4.78;3.60;;;;;;;28.26;47.54;93229.78;5107536;28;20024;-46
2021/06/21 09:24:20;;;;;;;3.25;3.00;;;;;;;29.18;43.64;93229.13;5107916;28;20019;-47
2021/06/21 09:26:48;;;;;;;7.45;3.33;;;;;;;29.77;42.60;93228.22;5101389;28;20066;-47
2021/06/21 09:29:14;;;;;;;4.18;3.25;;;;;;;30.93;39.08;93222.41;5108601;28;20092;-43
2021/06/21 09:31:54;;;;;;;2.90;2.55;;;;;;;31.86;36.87;93224.34;5109202;28;20032;-43
2021/06/21 09:34:21;;;;;;;6.95;3.30;;;;;;;31.82;37.00;93229.97;5109410;28;20027;-43
2021/06/21 09:36:47;;;;;;;6.25;2.85;;;;;;;31.34;37.13;93230.06;5109323;28;20036;-44
2021/06/21 09:39:16;;;;;;;3.17;2.80;;;;;;;31.45;37.60;93230.97;5108583;28;20416;-45
2021/06/21 09:41:41;;;;;;;3.17;2.75;;;;;;;32.14;35.19;93227.50;5108971;28;20027;-44
2021/06/21 09:44:07;;;;;;;2.78;2.33;;;;;;;31.97;35.92;93234.44;5108707;28;20031;-42
2021/06/21 09:46:32;;;;;;;3.38;2.65;;;;;;;32.30;35.96;93224.06;5108718;28;20023;-44
2021/06/21 09:48:58;;;;;;;3.30;3.00;;;;;;;33.02;35.28;93236.16;5108380;28;20541;-45
2021/06/21 09:51:33;;;;;;;3.17;2.42;;;;;;;33.85;32.46;93228.03;5108537;28;20134;-43
2021/06/21 09:54:02;;;;;;;2.75;2.42;;;;;;;34.39;31.47;93233.91;5108535;28;20088;-47
2021/06/21 09:56:37;;;;;;;2.75;2.55;;;;;;;34.70;31.11;93226.06;5108546;28;20416;-43
2021/06/21 09:59:23;;;;;;;2.42;2.25;;;;;;;35.30;30.64;93222.44;5109041;28;20066;-45
2021/06/21 10:02:04;;;;;;;4.28;2.80;;;;;;;34.44;31.25;93228.91;5107780;28;20027;-42
2021/06/21 10:04:30;;;;;;;5.85;2.88;;;;;;;34.35;32.30;93226.00;5108538;28;20035;-44
2021/06/21 10:06:55;;;;;;;3.65;2.88;;;;;;;34.36;32.28;93229.59;5108544;28;20030;-44
2021/06/21 10:09:21;;;;;;;3.47;2.90;;;;;;;33.41;32.40;93234.97;5108554;28;20012;-43
2021/06/21 10:11:46;;;;;;;4.85;2.60;;;;;;;32.22;34.15;93230.44;5108466;28;20106;-43
2021/06/21 10:14:17;;;;;;;4.50;2.92;;;;;;;31.21;36.31;93228.47;5090186;28;20031;-42
2021/06/21 10:16:44;;;;;;;4.28;2.90;;;;;;;30.83;37.63;93231.47;5088454;28;20088;-41
2021/06/21 10:19:10;;;;;;;5.07;3.05;;;;;;;31.33;37.05;93235.09;5088228;28;20036;-42
2021/06/21 10:21:38;;;;;;;3.20;3.00;;;;;;;31.61;35.95;93228.31;5088389;28;20057;-43
2021/06/21 10:24:04;;;;;;;6.20;2.80;;;;;;;32.52;34.30;93207.88;5088281;28;20024;-44
2021/06/21 10:26:30;;;;;;;4.25;2.47;;;;;;;32.99;33.60;93219.66;5088367;28;20032;-42
2021/06/21 10:28:56;;;;;;;7.20;2.53;;;;;;;33.68;32.61;93218.63;5088179;28;20111;-44
2021/06/21 10:31:23;;;;;;;3.25;2.95;;;;;;;33.16;32.88;93221.25;5088524;28;20115;-46
2021/06/21 10:33:48;;;;;;;2.90;2.70;;;;;;;33.08;33.15;93224.75;5089623;28;20054;-48
2021/06/21 10:36:14;;;;;;;2.90;2.70;;;;;;;32.67;32.49;93220.13;5108804;28;20024;-45
2021/06/21 10:38:39;;;;;;;2.55;2.35;;;;;;;32.97;33.73;93217.50;5108754;28;20024;-46
2021/06/21 10:41:08;;;;;;;3.25;2.90;;;;;;;33.31;33.59;93225.63;5108494;28;20047;-44
2021/06/21 10:43:43;;;;;;;3.10;2.80;;;;;;;33.71;32.66;93225.81;5112539;28;20038;-47
2021/06/21 10:46:18;;;;;;;4.32;3.08;;;;;;;33.42;32.56;93229.94;5111913;28;20454;-43
2021/06/21 10:49:12;;;;;;;2.92;2.72;;;;;;;32.50;33.79;93241.44;5112166;28;20489;-42
2021/06/21 10:51:41;;;;;;;4.35;3.15;;;;;;;31.79;34.69;93242.81;5082170;28;20046;-43
2021/06/21 10:54:22;;;;;;;3.80;3.05;;;;;;;30.96;36.17;93235.97;5111903;28;20028;-57
2021/06/21 10:56:55;;;;;;;3.15;2.90;;;;;;;30.44;39.10;93237.97;5111934;28;20058;-48
2021/06/21 10:59:29;;;;;;;3.75;3.45;;;;;;;29.88;40.29;93232.72;5112294;27;20028;-48
2021/06/21 11:01:59;;;;;;;4.75;3.35;;;;;;;29.42;40.80;93234.59;5111017;28;20030;-52
2021/06/21 11:04:37;;;;;;;5.57;3.40;;;;;;;29.08;42.01;93234.59;5112070;28;20206;-48
2021/06/21 11:07:16;;;;;;;6.50;2.97;;;;;;;29.50;41.85;93229.06;5111967;28;20466;-53
2021/06/21 11:09:46;;;;;;;3.17;2.83;;;;;;;29.80;39.61;93226.84;5111658;28;20024;-49
2021/06/21 11:12:23;;;;;;;3.15;2.95;;;;;;;30.12;39.08;93220.31;5110054;28;20630;-53
2021/06/21 11:15:07;;;;;;;2.90;2.67;;;;;;;30.58;38.63;93218.28;5111293;28;20542;-49
2021/06/21 11:17:54;;;;;;;2.85;2.65;;;;;;;31.06;39.08;93224.72;5110498;28;20137;-49
2021/06/21 11:20:40;;;;;;;2.65;2.45;;;;;;;31.32;37.56;93224.34;5090744;28;20028;-47
2021/06/21 11:23:11;;;;;;;2.53;2.33;;;;;;;31.18;37.17;93222.03;5091200;28;20028;-47
2021/06/21 11:25:47;;;;;;;2.75;2.15;;;;;;;31.30;34.78;93210.06;5110597;28;20027;-53
2021/06/21 11:28:38;;;;;;;3.33;2.10;;;;;;;31.35;36.24;93205.84;5110985;28;20024;-46
2021/06/21 11:31:19;;;;;;;2.55;2.20;;;;;;;31.33;37.63;93195.16;5111267;28;20541;-49
2021/06/21 11:33:57;;;;;;;1.98;1.88;;;;;;;31.24;36.71;93187.88;5111345;28;20042;-50
2021/06/21 11:36:42;;;;;;;4.20;2.35;;;;;;;31.40;37.61;93198.78;5109342;28;20027;-52